sensor_id;sensor_type;location;lat;lon;timestamp;P1;durP1;ratioP1;P2;durP2;ratioP2
4704;SDS011;2366;51.332;6.610;2023-12-14T00:01:15;248.00;;;58.23;;
4704;SDS011;2366;51.332;6.610;2023-12-14T00:03:41;257.43;;;57.87;;
4704;SDS011;2366;51.332;6.610;2023-12-14T00:06:07;222.33;;;57.17;;
4704;SDS011;2366;51.332;6.610;2023-12-14T00:08:33;258.58;;;57.70;;
4704;SDS011;2366;51.332;6.610;2023-12-14T00:11:02;260.63;;;57.90;;
4704;SDS011;2366;51.332;6.610;2023-12-14T00:13:31;228.10;;;57.13;;
4704;SDS011;2366;51.332;6.610;2023-12-14T00:15:57;252.67;;;52.00;;
4704;SDS011;2366;51.332;6.610;2023-12-14T00:18:22;240.67;;;50.97;;
4704;SDS011;2366;51.332;6.610;2023-12-14T00:20:48;202.43;;;47.97;;
4704;SDS011;2366;51.332;6.610;2023-12-14T00:23:13;191.20;;;44.50;;
4704;SDS011;2366;51.332;6.610;2023-12-14T00:25:39;153.90;;;38.13;;
4704;SDS011;2366;51.332;6.610;2023-12-14T00:28:04;135.00;;;35.43;;
4704;SDS011;2366;51.332;6.610;2023-12-14T00:30:29;130.00;;;32.70;;
4704;SDS011;2366;51.332;6.610;2023-12-14T00:32:55;103.23;;;30.30;;
4704;SDS011;2366;51.332;6.610;2023-12-14T00:35:20;101.80;;;29.17;;
4704;SDS011;2366;51.332;6.610;2023-12-14T00:37:45;97.87;;;27.50;;
4704;SDS011;2366;51.332;6.610;2023-12-14T00:40:11;98.13;;;27.90;;
4704;SDS011;2366;51.332;6.610;2023-12-14T00:42:36;86.53;;;27.83;;
4704;SDS011;2366;51.332;6.610;2023-12-14T00:45:02;107.20;;;28.30;;
4704;SDS011;2366;51.332;6.610;2023-12-14T00:47:27;95.70;;;27.03;;
4704;SDS011;2366;51.332;6.610;2023-12-14T00:49:53;83.00;;;25.33;;
4704;SDS011;2366;51.332;6.610;2023-12-14T00:52:18;71.83;;;23.43;;
4704;SDS011;2366;51.332;6.610;2023-12-14T00:54:44;72.27;;;24.00;;
4704;SDS011;2366;51.332;6.610;2023-12-14T00:57:09;74.63;;;24.90;;
4704;SDS011;2366;51.332;6.610;2023-12-14T00:59:34;61.67;;;22.97;;
4704;SDS011;2366;51.332;6.610;2023-12-14T01:02:00;72.50;;;23.80;;
4704;SDS011;2366;51.332;6.610;2023-12-14T01:04:25;59.97;;;21.97;;
4704;SDS011;2366;51.332;6.610;2023-12-14T01:06:50;80.17;;;23.93;;
4704;SDS011;2366;51.332;6.610;2023-12-14T01:09:16;61.37;;;22.77;;
4704;SDS011;2366;51.332;6.610;2023-12-14T01:11:41;73.20;;;25.33;;
4704;SDS011;2366;51.332;6.610;2023-12-14T01:14:07;58.07;;;24.00;;
4704;SDS011;2366;51.332;6.610;2023-12-14T01:16:32;56.67;;;20.97;;
4704;SDS011;2366;51.332;6.610;2023-12-14T01:18:57;51.93;;;21.43;;
4704;SDS011;2366;51.332;6.610;2023-12-14T01:21:23;54.13;;;21.73;;
4704;SDS011;2366;51.332;6.610;2023-12-14T01:23:48;64.47;;;22.70;;
4704;SDS011;2366;51.332;6.610;2023-12-14T01:26:14;61.77;;;24.57;;
4704;SDS011;2366;51.332;6.610;2023-12-14T01:28:39;69.17;;;27.40;;
4704;SDS011;2366;51.332;6.610;2023-12-14T01:31:05;99.67;;;29.53;;
4704;SDS011;2366;51.332;6.610;2023-12-14T01:33:30;97.17;;;32.90;;
4704;SDS011;2366;51.332;6.610;2023-12-14T01:35:55;83.87;;;31.40;;
4704;SDS011;2366;51.332;6.610;2023-12-14T01:38:21;123.40;;;35.40;;
4704;SDS011;2366;51.332;6.610;2023-12-14T01:40:46;86.00;;;30.73;;
4704;SDS011;2366;51.332;6.610;2023-12-14T01:43:12;60.80;;;25.30;;
4704;SDS011;2366;51.332;6.610;2023-12-14T01:45:37;74.90;;;26.03;;
4704;SDS011;2366;51.332;6.610;2023-12-14T01:48:04;82.93;;;25.35;;
4704;SDS011;2366;51.332;6.610;2023-12-14T01:50:30;86.47;;;30.65;;
4704;SDS011;2366;51.332;6.610;2023-12-14T01:52:55;82.47;;;30.53;;
4704;SDS011;2366;51.332;6.610;2023-12-14T01:55:20;81.67;;;30.70;;
4704;SDS011;2366;51.332;6.610;2023-12-14T01:57:46;81.57;;;29.90;;
4704;SDS011;2366;51.332;6.610;2023-12-14T02:00:13;112.93;;;32.63;;
4704;SDS011;2366;51.332;6.610;2023-12-14T02:02:51;123.22;;;36.53;;
4704;SDS011;2366;51.332;6.610;2023-12-14T02:05:16;115.70;;;35.30;;
4704;SDS011;2366;51.332;6.610;2023-12-14T02:07:42;106.13;;;34.83;;
4704;SDS011;2366;51.332;6.610;2023-12-14T02:10:07;115.80;;;37.57;;
4704;SDS011;2366;51.332;6.610;2023-12-14T02:12:33;114.83;;;36.27;;
4704;SDS011;2366;51.332;6.610;2023-12-14T02:14:59;139.07;;;41.60;;
4704;SDS011;2366;51.332;6.610;2023-12-14T02:17:24;150.30;;;44.93;;
4704;SDS011;2366;51.332;6.610;2023-12-14T02:19:50;154.20;;;44.33;;
4704;SDS011;2366;51.332;6.610;2023-12-14T02:22:16;132.47;;;43.80;;
4704;SDS011;2366;51.332;6.610;2023-12-14T02:24:42;107.95;;;38.42;;
4704;SDS011;2366;51.332;6.610;2023-12-14T02:27:07;103.33;;;34.23;;
4704;SDS011;2366;51.332;6.610;2023-12-14T02:29:33;106.33;;;38.07;;
4704;SDS011;2366;51.332;6.610;2023-12-14T02:31:58;120.20;;;34.70;;
4704;SDS011;2366;51.332;6.610;2023-12-14T02:34:23;104.37;;;36.07;;
4704;SDS011;2366;51.332;6.610;2023-12-14T02:36:50;107.70;;;35.90;;
4704;SDS011;2366;51.332;6.610;2023-12-14T02:39:15;108.37;;;38.40;;
4704;SDS011;2366;51.332;6.610;2023-12-14T02:41:41;108.60;;;37.00;;
4704;SDS011;2366;51.332;6.610;2023-12-14T02:44:06;127.53;;;39.30;;
4704;SDS011;2366;51.332;6.610;2023-12-14T02:46:31;108.00;;;41.50;;
4704;SDS011;2366;51.332;6.610;2023-12-14T02:48:57;105.93;;;38.87;;
4704;SDS011;2366;51.332;6.610;2023-12-14T02:51:22;104.43;;;38.03;;
4704;SDS011;2366;51.332;6.610;2023-12-14T02:53:47;131.47;;;41.37;;
4704;SDS011;2366;51.332;6.610;2023-12-14T02:56:13;121.07;;;39.97;;
4704;SDS011;2366;51.332;6.610;2023-12-14T02:58:38;107.53;;;40.50;;
4704;SDS011;2366;51.332;6.610;2023-12-14T03:01:04;112.73;;;38.87;;
4704;SDS011;2366;51.332;6.610;2023-12-14T03:03:29;104.53;;;38.80;;
4704;SDS011;2366;51.332;6.610;2023-12-14T03:05:55;99.40;;;32.60;;
4704;SDS011;2366;51.332;6.610;2023-12-14T03:08:20;102.43;;;35.17;;
4704;SDS011;2366;51.332;6.610;2023-12-14T03:10:45;90.60;;;36.87;;
4704;SDS011;2366;51.332;6.610;2023-12-14T03:13:11;75.80;;;30.93;;
4704;SDS011;2366;51.332;6.610;2023-12-14T03:15:36;65.33;;;28.90;;
4704;SDS011;2366;51.332;6.610;2023-12-14T03:18:02;66.77;;;31.13;;
4704;SDS011;2366;51.332;6.610;2023-12-14T03:20:29;65.75;;;30.77;;
4704;SDS011;2366;51.332;6.610;2023-12-14T03:22:55;65.43;;;30.17;;
4704;SDS011;2366;51.332;6.610;2023-12-14T03:25:20;65.53;;;29.27;;
4704;SDS011;2366;51.332;6.610;2023-12-14T03:27:46;66.23;;;31.43;;
4704;SDS011;2366;51.332;6.610;2023-12-14T03:30:11;74.50;;;32.87;;
4704;SDS011;2366;51.332;6.610;2023-12-14T03:32:37;75.10;;;33.07;;
4704;SDS011;2366;51.332;6.610;2023-12-14T03:35:02;72.47;;;33.23;;
4704;SDS011;2366;51.332;6.610;2023-12-14T03:37:28;78.50;;;33.13;;
4704;SDS011;2366;51.332;6.610;2023-12-14T03:39:53;66.77;;;30.70;;
4704;SDS011;2366;51.332;6.610;2023-12-14T03:42:18;73.93;;;32.90;;
4704;SDS011;2366;51.332;6.610;2023-12-14T03:44:44;68.67;;;32.40;;
4704;SDS011;2366;51.332;6.610;2023-12-14T03:47:09;77.27;;;33.80;;
4704;SDS011;2366;51.332;6.610;2023-12-14T03:49:38;70.93;;;32.37;;
4704;SDS011;2366;51.332;6.610;2023-12-14T03:52:03;75.60;;;31.55;;
4704;SDS011;2366;51.332;6.610;2023-12-14T03:54:29;67.43;;;30.73;;
4704;SDS011;2366;51.332;6.610;2023-12-14T03:56:55;57.57;;;31.20;;
4704;SDS011;2366;51.332;6.610;2023-12-14T03:59:20;67.17;;;30.87;;
4704;SDS011;2366;51.332;6.610;2023-12-14T04:01:46;69.73;;;34.63;;
4704;SDS011;2366;51.332;6.610;2023-12-14T04:04:11;72.47;;;34.47;;
4704;SDS011;2366;51.332;6.610;2023-12-14T04:06:36;65.00;;;30.97;;
4704;SDS011;2366;51.332;6.610;2023-12-14T04:09:02;73.30;;;33.83;;
4704;SDS011;2366;51.332;6.610;2023-12-14T04:11:27;76.20;;;35.43;;
4704;SDS011;2366;51.332;6.610;2023-12-14T04:13:52;74.77;;;33.17;;
4704;SDS011;2366;51.332;6.610;2023-12-14T04:16:22;80.73;;;34.93;;
4704;SDS011;2366;51.332;6.610;2023-12-14T04:18:48;67.38;;;34.63;;
4704;SDS011;2366;51.332;6.610;2023-12-14T04:21:13;81.65;;;31.98;;
4704;SDS011;2366;51.332;6.610;2023-12-14T04:23:39;71.90;;;33.00;;
4704;SDS011;2366;51.332;6.610;2023-12-14T04:26:04;78.07;;;35.60;;
4704;SDS011;2366;51.332;6.610;2023-12-14T04:28:30;78.37;;;32.50;;
4704;SDS011;2366;51.332;6.610;2023-12-14T04:30:55;78.63;;;33.40;;
4704;SDS011;2366;51.332;6.610;2023-12-14T04:33:20;79.90;;;34.53;;
4704;SDS011;2366;51.332;6.610;2023-12-14T04:35:46;73.00;;;34.70;;
4704;SDS011;2366;51.332;6.610;2023-12-14T04:38:11;77.90;;;33.90;;
4704;SDS011;2366;51.332;6.610;2023-12-14T04:40:36;61.40;;;30.90;;
4704;SDS011;2366;51.332;6.610;2023-12-14T04:43:02;68.43;;;33.13;;
4704;SDS011;2366;51.332;6.610;2023-12-14T04:45:28;76.03;;;33.60;;
4704;SDS011;2366;51.332;6.610;2023-12-14T04:47:53;71.37;;;30.53;;
4704;SDS011;2366;51.332;6.610;2023-12-14T04:50:18;73.00;;;34.00;;
4704;SDS011;2366;51.332;6.610;2023-12-14T04:52:44;74.07;;;32.20;;
4704;SDS011;2366;51.332;6.610;2023-12-14T04:55:09;70.87;;;31.00;;
4704;SDS011;2366;51.332;6.610;2023-12-14T04:57:35;71.37;;;30.90;;
4704;SDS011;2366;51.332;6.610;2023-12-14T05:00:01;73.95;;;32.15;;
4704;SDS011;2366;51.332;6.610;2023-12-14T05:02:27;84.55;;;31.77;;
4704;SDS011;2366;51.332;6.610;2023-12-14T05:04:53;74.87;;;33.03;;
4704;SDS011;2366;51.332;6.610;2023-12-14T05:07:18;77.87;;;34.40;;
4704;SDS011;2366;51.332;6.610;2023-12-14T05:09:44;73.23;;;34.23;;
4704;SDS011;2366;51.332;6.610;2023-12-14T05:12:09;71.87;;;32.87;;
4704;SDS011;2366;51.332;6.610;2023-12-14T05:14:34;80.97;;;32.83;;
4704;SDS011;2366;51.332;6.610;2023-12-14T05:17:00;60.30;;;28.30;;
4704;SDS011;2366;51.332;6.610;2023-12-14T05:19:25;68.73;;;32.70;;
4704;SDS011;2366;51.332;6.610;2023-12-14T05:21:50;66.37;;;31.50;;
4704;SDS011;2366;51.332;6.610;2023-12-14T05:24:16;71.73;;;30.77;;
4704;SDS011;2366;51.332;6.610;2023-12-14T05:26:41;79.60;;;34.33;;
4704;SDS011;2366;51.332;6.610;2023-12-14T05:29:06;66.20;;;31.03;;
4704;SDS011;2366;51.332;6.610;2023-12-14T05:31:32;74.33;;;33.23;;
4704;SDS011;2366;51.332;6.610;2023-12-14T05:33:57;67.83;;;30.97;;
4704;SDS011;2366;51.332;6.610;2023-12-14T05:36:23;63.13;;;30.20;;
4704;SDS011;2366;51.332;6.610;2023-12-14T05:38:48;61.40;;;31.57;;
4704;SDS011;2366;51.332;6.610;2023-12-14T05:41:14;66.53;;;31.37;;
4704;SDS011;2366;51.332;6.610;2023-12-14T05:43:39;58.00;;;28.63;;
4704;SDS011;2366;51.332;6.610;2023-12-14T05:46:04;66.03;;;29.20;;
4704;SDS011;2366;51.332;6.610;2023-12-14T05:48:30;69.03;;;30.67;;
4704;SDS011;2366;51.332;6.610;2023-12-14T05:50:56;67.27;;;30.60;;
4704;SDS011;2366;51.332;6.610;2023-12-14T05:53:21;58.90;;;29.17;;
4704;SDS011;2366;51.332;6.610;2023-12-14T05:55:47;59.20;;;29.03;;
4704;SDS011;2366;51.332;6.610;2023-12-14T05:58:13;51.90;;;26.20;;
4704;SDS011;2366;51.332;6.610;2023-12-14T06:00:38;66.40;;;30.60;;
4704;SDS011;2366;51.332;6.610;2023-12-14T06:03:04;61.97;;;29.30;;
4704;SDS011;2366;51.332;6.610;2023-12-14T06:05:30;60.30;;;28.43;;
4704;SDS011;2366;51.332;6.610;2023-12-14T06:07:56;57.97;;;28.80;;
4704;SDS011;2366;51.332;6.610;2023-12-14T06:10:21;57.97;;;27.63;;
4704;SDS011;2366;51.332;6.610;2023-12-14T06:12:47;54.33;;;26.70;;
4704;SDS011;2366;51.332;6.610;2023-12-14T06:15:12;56.60;;;27.60;;
4704;SDS011;2366;51.332;6.610;2023-12-14T06:17:38;64.17;;;30.53;;
4704;SDS011;2366;51.332;6.610;2023-12-14T06:20:06;56.30;;;26.95;;
4704;SDS011;2366;51.332;6.610;2023-12-14T06:22:38;47.42;;;25.50;;
4704;SDS011;2366;51.332;6.610;2023-12-14T06:25:04;58.88;;;27.50;;
4704;SDS011;2366;51.332;6.610;2023-12-14T06:27:30;53.17;;;26.07;;
4704;SDS011;2366;51.332;6.610;2023-12-14T06:29:55;52.20;;;25.70;;
4704;SDS011;2366;51.332;6.610;2023-12-14T06:32:20;50.87;;;27.33;;
4704;SDS011;2366;51.332;6.610;2023-12-14T06:34:46;56.33;;;25.53;;
4704;SDS011;2366;51.332;6.610;2023-12-14T06:37:12;50.77;;;26.40;;
4704;SDS011;2366;51.332;6.610;2023-12-14T06:39:37;53.13;;;27.57;;
4704;SDS011;2366;51.332;6.610;2023-12-14T06:42:03;54.43;;;25.87;;
4704;SDS011;2366;51.332;6.610;2023-12-14T06:44:28;51.83;;;28.53;;
4704;SDS011;2366;51.332;6.610;2023-12-14T06:46:55;54.75;;;29.30;;
4704;SDS011;2366;51.332;6.610;2023-12-14T06:49:23;51.45;;;25.85;;
4704;SDS011;2366;51.332;6.610;2023-12-14T06:51:48;52.67;;;24.80;;
4704;SDS011;2366;51.332;6.610;2023-12-14T06:54:14;52.93;;;27.20;;
4704;SDS011;2366;51.332;6.610;2023-12-14T06:56:39;48.83;;;24.80;;
4704;SDS011;2366;51.332;6.610;2023-12-14T06:59:05;60.33;;;29.33;;
4704;SDS011;2366;51.332;6.610;2023-12-14T07:01:30;56.60;;;27.33;;
4704;SDS011;2366;51.332;6.610;2023-12-14T07:03:55;59.43;;;27.13;;
4704;SDS011;2366;51.332;6.610;2023-12-14T07:06:21;61.50;;;29.83;;
4704;SDS011;2366;51.332;6.610;2023-12-14T07:08:46;56.33;;;27.80;;
4704;SDS011;2366;51.332;6.610;2023-12-14T07:11:12;59.70;;;29.40;;
4704;SDS011;2366;51.332;6.610;2023-12-14T07:13:38;57.97;;;28.63;;
4704;SDS011;2366;51.332;6.610;2023-12-14T07:16:07;64.53;;;30.60;;
4704;SDS011;2366;51.332;6.610;2023-12-14T07:18:34;66.68;;;31.80;;
4704;SDS011;2366;51.332;6.610;2023-12-14T07:21:03;69.90;;;33.17;;
4704;SDS011;2366;51.332;6.610;2023-12-14T07:23:30;70.03;;;33.85;;
4704;SDS011;2366;51.332;6.610;2023-12-14T07:25:55;71.43;;;33.30;;
4704;SDS011;2366;51.332;6.610;2023-12-14T07:28:21;61.27;;;31.37;;
4704;SDS011;2366;51.332;6.610;2023-12-14T07:30:47;57.35;;;31.65;;
4704;SDS011;2366;51.332;6.610;2023-12-14T07:33:12;64.97;;;29.00;;
4704;SDS011;2366;51.332;6.610;2023-12-14T07:35:41;56.05;;;29.60;;
4704;SDS011;2366;51.332;6.610;2023-12-14T07:38:10;60.60;;;29.00;;
4704;SDS011;2366;51.332;6.610;2023-12-14T07:40:36;60.65;;;32.40;;
4704;SDS011;2366;51.332;6.610;2023-12-14T07:43:01;55.30;;;28.30;;
4704;SDS011;2366;51.332;6.610;2023-12-14T07:45:27;61.33;;;30.10;;
4704;SDS011;2366;51.332;6.610;2023-12-14T07:47:53;54.23;;;26.87;;
4704;SDS011;2366;51.332;6.610;2023-12-14T07:50:18;52.10;;;27.37;;
4704;SDS011;2366;51.332;6.610;2023-12-14T07:52:44;44.10;;;25.40;;
4704;SDS011;2366;51.332;6.610;2023-12-14T07:55:10;48.13;;;25.03;;
4704;SDS011;2366;51.332;6.610;2023-12-14T07:57:35;48.20;;;29.00;;
4704;SDS011;2366;51.332;6.610;2023-12-14T08:00:00;44.00;;;26.60;;
4704;SDS011;2366;51.332;6.610;2023-12-14T08:02:26;48.30;;;28.23;;
4704;SDS011;2366;51.332;6.610;2023-12-14T08:04:51;52.90;;;26.43;;
4704;SDS011;2366;51.332;6.610;2023-12-14T08:07:17;46.20;;;27.75;;
4704;SDS011;2366;51.332;6.610;2023-12-14T08:09:42;44.53;;;26.30;;
4704;SDS011;2366;51.332;6.610;2023-12-14T08:12:08;48.37;;;28.70;;
4704;SDS011;2366;51.332;6.610;2023-12-14T08:14:33;54.77;;;28.87;;
4704;SDS011;2366;51.332;6.610;2023-12-14T08:16:59;57.57;;;30.33;;
4704;SDS011;2366;51.332;6.610;2023-12-14T08:19:26;50.33;;;30.88;;
4704;SDS011;2366;51.332;6.610;2023-12-14T08:21:52;47.42;;;28.52;;
4704;SDS011;2366;51.332;6.610;2023-12-14T08:24:17;47.60;;;29.57;;
4704;SDS011;2366;51.332;6.610;2023-12-14T08:26:43;48.17;;;29.07;;
4704;SDS011;2366;51.332;6.610;2023-12-14T08:29:08;48.63;;;27.10;;
4704;SDS011;2366;51.332;6.610;2023-12-14T08:31:34;43.07;;;27.80;;
4704;SDS011;2366;51.332;6.610;2023-12-14T08:33:59;44.80;;;26.77;;
4704;SDS011;2366;51.332;6.610;2023-12-14T08:36:25;42.87;;;25.10;;
4704;SDS011;2366;51.332;6.610;2023-12-14T08:38:50;45.53;;;26.50;;
4704;SDS011;2366;51.332;6.610;2023-12-14T08:41:16;40.50;;;25.33;;
4704;SDS011;2366;51.332;6.610;2023-12-14T08:43:41;39.83;;;25.73;;
4704;SDS011;2366;51.332;6.610;2023-12-14T08:46:06;40.80;;;24.93;;
4704;SDS011;2366;51.332;6.610;2023-12-14T08:48:32;39.17;;;25.50;;
4704;SDS011;2366;51.332;6.610;2023-12-14T08:50:57;41.23;;;24.27;;
4704;SDS011;2366;51.332;6.610;2023-12-14T08:53:23;43.57;;;25.57;;
4704;SDS011;2366;51.332;6.610;2023-12-14T08:55:48;41.30;;;25.07;;
4704;SDS011;2366;51.332;6.610;2023-12-14T08:58:13;37.20;;;23.17;;
4704;SDS011;2366;51.332;6.610;2023-12-14T09:00:39;37.73;;;23.43;;
4704;SDS011;2366;51.332;6.610;2023-12-14T09:03:05;41.38;;;24.58;;
4704;SDS011;2366;51.332;6.610;2023-12-14T09:05:30;37.57;;;23.53;;
4704;SDS011;2366;51.332;6.610;2023-12-14T09:07:56;36.90;;;23.00;;
4704;SDS011;2366;51.332;6.610;2023-12-14T09:10:23;40.40;;;24.52;;
4704;SDS011;2366;51.332;6.610;2023-12-14T09:12:49;41.13;;;24.93;;
4704;SDS011;2366;51.332;6.610;2023-12-14T09:15:14;40.43;;;23.63;;
4704;SDS011;2366;51.332;6.610;2023-12-14T09:17:40;33.55;;;22.98;;
4704;SDS011;2366;51.332;6.610;2023-12-14T09:20:07;36.55;;;23.67;;
4704;SDS011;2366;51.332;6.610;2023-12-14T09:22:33;33.78;;;22.90;;
4704;SDS011;2366;51.332;6.610;2023-12-14T09:24:58;35.97;;;23.83;;
4704;SDS011;2366;51.332;6.610;2023-12-14T09:27:24;36.97;;;24.83;;
4704;SDS011;2366;51.332;6.610;2023-12-14T09:29:49;36.73;;;23.90;;
4704;SDS011;2366;51.332;6.610;2023-12-14T09:32:15;36.20;;;23.47;;
4704;SDS011;2366;51.332;6.610;2023-12-14T09:34:42;38.03;;;21.17;;
4704;SDS011;2366;51.332;6.610;2023-12-14T09:37:08;38.72;;;22.15;;
4704;SDS011;2366;51.332;6.610;2023-12-14T09:39:33;38.57;;;24.13;;
4704;SDS011;2366;51.332;6.610;2023-12-14T09:42:02;33.50;;;23.40;;
4704;SDS011;2366;51.332;6.610;2023-12-14T09:44:31;38.95;;;23.83;;
4704;SDS011;2366;51.332;6.610;2023-12-14T09:46:57;35.70;;;23.43;;
4704;SDS011;2366;51.332;6.610;2023-12-14T09:49:25;39.30;;;23.50;;
4704;SDS011;2366;51.332;6.610;2023-12-14T09:51:54;41.90;;;25.08;;
4704;SDS011;2366;51.332;6.610;2023-12-14T09:54:22;35.42;;;23.90;;
4704;SDS011;2366;51.332;6.610;2023-12-14T09:56:48;33.20;;;22.35;;
4704;SDS011;2366;51.332;6.610;2023-12-14T09:59:14;32.70;;;22.15;;
4704;SDS011;2366;51.332;6.610;2023-12-14T10:01:40;32.57;;;21.30;;
4704;SDS011;2366;51.332;6.610;2023-12-14T10:04:07;40.73;;;24.07;;
4704;SDS011;2366;51.332;6.610;2023-12-14T10:06:32;30.85;;;21.60;;
4704;SDS011;2366;51.332;6.610;2023-12-14T10:08:58;33.80;;;21.93;;
4704;SDS011;2366;51.332;6.610;2023-12-14T10:11:24;27.83;;;20.33;;
4704;SDS011;2366;51.332;6.610;2023-12-14T10:13:49;32.27;;;22.47;;
4704;SDS011;2366;51.332;6.610;2023-12-14T10:16:26;28.43;;;20.30;;
4704;SDS011;2366;51.332;6.610;2023-12-14T10:18:53;26.35;;;19.10;;
4704;SDS011;2366;51.332;6.610;2023-12-14T10:21:18;25.30;;;18.50;;
4704;SDS011;2366;51.332;6.610;2023-12-14T10:23:44;24.13;;;17.97;;
4704;SDS011;2366;51.332;6.610;2023-12-14T10:26:11;27.40;;;18.75;;
4704;SDS011;2366;51.332;6.610;2023-12-14T10:28:39;29.27;;;19.60;;
4704;SDS011;2366;51.332;6.610;2023-12-14T10:31:05;30.65;;;18.60;;
4704;SDS011;2366;51.332;6.610;2023-12-14T10:33:30;28.63;;;20.33;;
4704;SDS011;2366;51.332;6.610;2023-12-14T10:35:56;30.30;;;21.40;;
4704;SDS011;2366;51.332;6.610;2023-12-14T10:38:21;28.30;;;19.83;;
4704;SDS011;2366;51.332;6.610;2023-12-14T10:40:49;27.25;;;18.52;;
4704;SDS011;2366;51.332;6.610;2023-12-14T10:43:16;27.63;;;18.77;;
4704;SDS011;2366;51.332;6.610;2023-12-14T10:45:42;26.67;;;17.07;;
4704;SDS011;2366;51.332;6.610;2023-12-14T10:48:11;26.50;;;19.17;;
4704;SDS011;2366;51.332;6.610;2023-12-14T10:50:38;25.73;;;18.20;;
4704;SDS011;2366;51.332;6.610;2023-12-14T10:53:08;25.58;;;16.77;;
4704;SDS011;2366;51.332;6.610;2023-12-14T10:55:38;36.33;;;17.75;;
4704;SDS011;2366;51.332;6.610;2023-12-14T10:58:07;23.85;;;16.85;;
4704;SDS011;2366;51.332;6.610;2023-12-14T11:00:35;29.17;;;17.63;;
4704;SDS011;2366;51.332;6.610;2023-12-14T11:03:01;21.52;;;15.73;;
4704;SDS011;2366;51.332;6.610;2023-12-14T11:05:30;29.63;;;17.75;;
4704;SDS011;2366;51.332;6.610;2023-12-14T11:08:02;22.58;;;15.35;;
4704;SDS011;2366;51.332;6.610;2023-12-14T11:10:41;26.77;;;14.45;;
4704;SDS011;2366;51.332;6.610;2023-12-14T11:13:09;21.52;;;13.43;;
4704;SDS011;2366;51.332;6.610;2023-12-14T11:15:39;23.42;;;12.90;;
4704;SDS011;2366;51.332;6.610;2023-12-14T11:23:11;19.45;;;14.02;;
4704;SDS011;2366;51.332;6.610;2023-12-14T11:25:40;20.90;;;14.77;;
4704;SDS011;2366;51.332;6.610;2023-12-14T11:28:06;18.25;;;13.85;;
4704;SDS011;2366;51.332;6.610;2023-12-14T11:30:33;24.95;;;16.08;;
4704;SDS011;2366;51.332;6.610;2023-12-14T11:33:00;26.33;;;15.43;;
4704;SDS011;2366;51.332;6.610;2023-12-14T11:35:25;19.60;;;13.23;;
4704;SDS011;2366;51.332;6.610;2023-12-14T11:37:50;21.17;;;13.80;;
4704;SDS011;2366;51.332;6.610;2023-12-14T11:40:16;21.93;;;12.77;;
4704;SDS011;2366;51.332;6.610;2023-12-14T11:42:57;18.48;;;12.35;;
4704;SDS011;2366;51.332;6.610;2023-12-14T11:45:24;16.70;;;11.23;;
4704;SDS011;2366;51.332;6.610;2023-12-14T11:47:50;16.85;;;10.70;;
4704;SDS011;2366;51.332;6.610;2023-12-14T11:50:16;15.87;;;10.73;;
4704;SDS011;2366;51.332;6.610;2023-12-14T11:52:43;13.83;;;9.00;;
4704;SDS011;2366;51.332;6.610;2023-12-14T11:55:11;15.65;;;10.15;;
4704;SDS011;2366;51.332;6.610;2023-12-14T11:57:37;15.40;;;10.30;;
4704;SDS011;2366;51.332;6.610;2023-12-14T12:00:02;12.63;;;9.60;;
4704;SDS011;2366;51.332;6.610;2023-12-14T12:02:29;14.88;;;10.35;;
4704;SDS011;2366;51.332;6.610;2023-12-14T12:04:54;15.03;;;9.90;;
4704;SDS011;2366;51.332;6.610;2023-12-14T12:07:20;12.38;;;8.65;;
4704;SDS011;2366;51.332;6.610;2023-12-14T12:09:46;18.30;;;9.70;;
4704;SDS011;2366;51.332;6.610;2023-12-14T12:12:12;15.30;;;9.30;;
4704;SDS011;2366;51.332;6.610;2023-12-14T12:14:38;12.03;;;8.30;;
4704;SDS011;2366;51.332;6.610;2023-12-14T12:17:05;12.60;;;9.20;;
4704;SDS011;2366;51.332;6.610;2023-12-14T12:19:32;14.43;;;10.10;;
4704;SDS011;2366;51.332;6.610;2023-12-14T12:21:59;12.98;;;9.77;;
4704;SDS011;2366;51.332;6.610;2023-12-14T12:24:25;10.73;;;9.00;;
4704;SDS011;2366;51.332;6.610;2023-12-14T12:26:50;12.20;;;9.43;;
4704;SDS011;2366;51.332;6.610;2023-12-14T12:29:15;13.23;;;9.13;;
4704;SDS011;2366;51.332;6.610;2023-12-14T12:31:41;14.43;;;11.17;;
4704;SDS011;2366;51.332;6.610;2023-12-14T12:34:07;16.30;;;10.70;;
4704;SDS011;2366;51.332;6.610;2023-12-14T12:36:33;12.65;;;9.50;;
4704;SDS011;2366;51.332;6.610;2023-12-14T12:38:59;13.57;;;9.70;;
4704;SDS011;2366;51.332;6.610;2023-12-14T12:41:24;12.73;;;9.27;;
4704;SDS011;2366;51.332;6.610;2023-12-14T12:43:49;11.53;;;7.73;;
4704;SDS011;2366;51.332;6.610;2023-12-14T12:46:15;9.17;;;6.57;;
4704;SDS011;2366;51.332;6.610;2023-12-14T12:48:40;10.30;;;6.97;;
4704;SDS011;2366;51.332;6.610;2023-12-14T12:51:06;11.93;;;8.77;;
4704;SDS011;2366;51.332;6.610;2023-12-14T12:53:31;13.67;;;8.80;;
4704;SDS011;2366;51.332;6.610;2023-12-14T12:55:58;11.45;;;8.68;;
4704;SDS011;2366;51.332;6.610;2023-12-14T12:58:23;10.27;;;8.00;;
4704;SDS011;2366;51.332;6.610;2023-12-14T13:00:49;10.90;;;9.10;;
4704;SDS011;2366;51.332;6.610;2023-12-14T13:03:14;9.93;;;8.33;;
4704;SDS011;2366;51.332;6.610;2023-12-14T13:05:39;15.23;;;8.90;;
4704;SDS011;2366;51.332;6.610;2023-12-14T13:08:05;10.80;;;8.13;;
4704;SDS011;2366;51.332;6.610;2023-12-14T13:10:30;15.97;;;8.33;;
4704;SDS011;2366;51.332;6.610;2023-12-14T13:12:56;11.00;;;8.87;;
4704;SDS011;2366;51.332;6.610;2023-12-14T13:15:21;15.23;;;8.97;;
4704;SDS011;2366;51.332;6.610;2023-12-14T13:17:50;9.60;;;7.18;;
4704;SDS011;2366;51.332;6.610;2023-12-14T13:20:16;10.77;;;7.90;;
4704;SDS011;2366;51.332;6.610;2023-12-14T13:22:43;8.88;;;6.90;;
4704;SDS011;2366;51.332;6.610;2023-12-14T13:25:08;12.10;;;7.70;;
4704;SDS011;2366;51.332;6.610;2023-12-14T13:27:34;10.00;;;7.43;;
4704;SDS011;2366;51.332;6.610;2023-12-14T13:30:01;11.48;;;7.60;;
4704;SDS011;2366;51.332;6.610;2023-12-14T13:32:27;9.60;;;7.22;;
4704;SDS011;2366;51.332;6.610;2023-12-14T13:34:52;11.43;;;8.90;;
4704;SDS011;2366;51.332;6.610;2023-12-14T13:37:18;9.60;;;8.13;;
4704;SDS011;2366;51.332;6.610;2023-12-14T13:39:43;9.03;;;6.90;;
4704;SDS011;2366;51.332;6.610;2023-12-14T13:42:08;10.37;;;8.63;;
4704;SDS011;2366;51.332;6.610;2023-12-14T13:44:34;9.23;;;7.73;;
4704;SDS011;2366;51.332;6.610;2023-12-14T13:47:03;8.63;;;7.23;;
4704;SDS011;2366;51.332;6.610;2023-12-14T13:49:29;11.57;;;8.52;;
4704;SDS011;2366;51.332;6.610;2023-12-14T13:51:54;11.13;;;8.60;;
4704;SDS011;2366;51.332;6.610;2023-12-14T13:54:20;8.60;;;7.10;;
4704;SDS011;2366;51.332;6.610;2023-12-14T13:56:45;15.03;;;8.33;;
4704;SDS011;2366;51.332;6.610;2023-12-14T13:59:11;11.00;;;9.23;;
4704;SDS011;2366;51.332;6.610;2023-12-14T14:01:36;9.03;;;7.43;;
4704;SDS011;2366;51.332;6.610;2023-12-14T14:04:02;10.60;;;8.50;;
4704;SDS011;2366;51.332;6.610;2023-12-14T14:06:28;13.83;;;9.20;;
4704;SDS011;2366;51.332;6.610;2023-12-14T14:08:54;12.53;;;8.40;;
4704;SDS011;2366;51.332;6.610;2023-12-14T14:11:20;10.30;;;8.70;;
4704;SDS011;2366;51.332;6.610;2023-12-14T14:13:45;10.20;;;8.80;;
4704;SDS011;2366;51.332;6.610;2023-12-14T14:16:11;10.17;;;8.13;;
4704;SDS011;2366;51.332;6.610;2023-12-14T14:18:36;9.93;;;8.03;;
4704;SDS011;2366;51.332;6.610;2023-12-14T14:21:01;10.53;;;8.40;;
4704;SDS011;2366;51.332;6.610;2023-12-14T14:23:27;12.93;;;8.87;;
4704;SDS011;2366;51.332;6.610;2023-12-14T14:25:53;11.80;;;8.90;;
4704;SDS011;2366;51.332;6.610;2023-12-14T14:28:21;12.13;;;8.88;;
4704;SDS011;2366;51.332;6.610;2023-12-14T14:30:47;12.50;;;9.98;;
4704;SDS011;2366;51.332;6.610;2023-12-14T14:33:13;11.75;;;9.25;;
4704;SDS011;2366;51.332;6.610;2023-12-14T14:35:43;11.57;;;8.75;;
4704;SDS011;2366;51.332;6.610;2023-12-14T14:38:12;15.85;;;9.98;;
4704;SDS011;2366;51.332;6.610;2023-12-14T14:40:39;11.73;;;8.98;;
4704;SDS011;2366;51.332;6.610;2023-12-14T14:43:05;9.52;;;8.50;;
4704;SDS011;2366;51.332;6.610;2023-12-14T14:45:31;14.87;;;8.77;;